createdAt,value
2018-07-01T00:00:43.614Z,88.4
2018-07-01T00:01:44.322Z,88.4
2018-07-01T00:02:45.052Z,88.3
2018-07-01T00:03:45.774Z,88.3
2018-07-01T00:04:46.486Z,88.6
2018-07-01T00:05:47.202Z,88.2
2018-07-01T00:06:47.919Z,88.5
2018-07-01T00:07:48.640Z,88.6
2018-07-01T00:08:49.367Z,88.6
2018-07-01T00:09:50.102Z,88.6
2018-07-01T00:10:50.929Z,88.5
2018-07-01T00:11:51.535Z,89.0
2018-07-01T00:12:52.257Z,88.3
2018-07-01T00:13:52.968Z,88.5
2018-07-01T00:14:53.689Z,88.8
2018-07-01T00:15:54.421Z,89.2
2018-07-01T00:16:55.448Z,88.0
2018-07-01T00:17:56.164Z,88.7
2018-07-01T00:18:56.886Z,88.6
2018-07-01T00:19:57.611Z,88.9
2018-07-01T00:20:58.325Z,88.9
2018-07-01T00:21:59.043Z,89.2
2018-07-01T00:22:59.772Z,88.7
2018-07-01T00:24:00.490Z,88.8
2018-07-01T00:25:01.213Z,88.8
2018-07-01T00:26:01.944Z,88.9
2018-07-01T00:27:02.667Z,89.4
2018-07-01T00:28:03.379Z,89.6
2018-07-01T00:29:04.095Z,89.5
2018-07-01T00:30:04.816Z,90.6
2018-07-01T00:31:05.543Z,90.2
2018-07-01T00:32:06.521Z,90.0
2018-07-01T00:33:07.244Z,90.4
2018-07-01T00:34:08.064Z,90.3
2018-07-01T00:35:08.779Z,89.9
2018-07-01T00:36:09.506Z,90.8
2018-07-01T00:37:10.230Z,91.1
2018-07-01T00:38:10.961Z,90.4
2018-07-01T00:39:11.675Z,89.9
2018-07-01T00:40:12.387Z,90.0
2018-07-01T00:41:13.103Z,90.2
2018-07-01T00:42:13.826Z,90.3
2018-07-01T00:43:14.559Z,90.3
2018-07-01T00:44:15.270Z,90.4
2018-07-01T00:45:16.239Z,90.4
2018-07-01T00:46:17.202Z,90.1
2018-07-01T00:47:18.172Z,90.5
2018-07-01T00:48:18.876Z,90.4
2018-07-01T00:49:19.605Z,90.1
2018-07-01T00:50:20.320Z,90.2
2018-07-01T00:51:21.044Z,90.2
2018-07-01T00:52:21.766Z,90.7
2018-07-01T00:53:22.743Z,90.1
2018-07-01T00:54:23.505Z,90.0
2018-07-01T00:55:24.468Z,90.4
2018-07-01T00:56:25.427Z,90.4
2018-07-01T00:57:26.150Z,90.4
2018-07-01T00:58:26.868Z,90.4
2018-07-01T00:59:27.842Z,90.3
2018-07-01T01:00:28.551Z,89.9
2018-07-01T01:01:29.272Z,90.1
2018-07-01T01:02:29.991Z,90.4
2018-07-01T01:03:30.708Z,90.1
2018-07-01T01:04:31.432Z,90.0
2018-07-01T01:05:32.210Z,89.5
2018-07-01T01:06:32.934Z,89.6
2018-07-01T01:07:33.648Z,89.4
2018-07-01T01:08:34.378Z,89.9
2018-07-01T01:09:35.095Z,89.8
2018-07-01T01:10:35.824Z,89.7
2018-07-01T01:11:36.545Z,89.5
2018-07-01T01:12:37.263Z,89.5
2018-07-01T01:13:37.979Z,89.8
2018-07-01T01:14:38.709Z,89.5
2018-07-01T01:15:39.417Z,90.2
2018-07-01T01:16:40.208Z,90.1
2018-07-01T01:17:40.929Z,89.7
2018-07-01T01:18:41.893Z,89.7
2018-07-01T01:19:42.619Z,89.6
2018-07-01T01:20:43.361Z,90.2
2018-07-01T01:21:44.078Z,89.6
2018-07-01T01:22:44.794Z,89.6
2018-07-01T01:23:46.031Z,90.0
2018-07-01T01:24:46.738Z,90.1
2018-07-01T01:25:47.463Z,90.0
2018-07-01T01:26:48.184Z,90.5
2018-07-01T01:27:49.142Z,90.2
2018-07-01T01:28:50.006Z,90.3
2018-07-01T01:29:50.737Z,90.3
2018-07-01T01:30:51.444Z,90.4
2018-07-01T01:31:52.168Z,90.4
2018-07-01T01:32:52.887Z,90.7
2018-07-01T01:33:53.854Z,90.8
2018-07-01T01:34:54.589Z,90.5
2018-07-01T01:35:55.297Z,90.5
2018-07-01T01:36:56.031Z,90.9
2018-07-01T01:37:56.748Z,90.5
2018-07-01T01:38:57.625Z,90.7
2018-07-01T01:39:58.339Z,90.6
2018-07-01T01:40:59.298Z,91.4
2018-07-01T01:42:00.267Z,91.1
2018-07-01T01:43:00.981Z,91.8
2018-07-01T01:44:02.101Z,91.1
2018-07-01T01:45:02.824Z,91.8
2018-07-01T01:46:03.549Z,91.7
2018-07-01T01:47:04.265Z,91.9
2018-07-01T01:48:05.001Z,91.9
2018-07-01T01:49:05.762Z,91.6
2018-07-01T01:50:06.475Z,91.2
2018-07-01T01:51:07.208Z,92.2
2018-07-01T01:52:08.174Z,91.6
2018-07-01T01:53:08.895Z,91.8
2018-07-01T01:54:09.911Z,91.9
2018-07-01T01:55:10.876Z,91.8
2018-07-01T01:56:11.595Z,91.8
2018-07-01T01:57:12.336Z,91.9
2018-07-01T01:58:13.308Z,91.0
2018-07-01T01:59:14.015Z,91.4
2018-07-01T02:00:14.840Z,91.2
2018-07-01T02:01:15.564Z,91.6
2018-07-01T02:02:16.283Z,91.5
2018-07-01T02:03:17.007Z,91.9
2018-07-01T02:04:17.726Z,91.8
2018-07-01T02:05:18.493Z,91.5
2018-07-01T02:06:19.206Z,91.5
2018-07-01T02:07:19.929Z,91.9
2018-07-01T02:08:20.652Z,91.7
2018-07-01T02:09:21.363Z,91.6
2018-07-01T02:10:22.334Z,91.8
2018-07-01T02:11:23.046Z,91.3
2018-07-01T02:12:23.781Z,91.8
2018-07-01T02:13:24.495Z,91.6
2018-07-01T02:14:25.256Z,91.5
2018-07-01T02:15:26.003Z,91.9
2018-07-01T02:16:26.718Z,91.9
2018-07-01T02:17:27.432Z,92.6
2018-07-01T02:18:28.148Z,92.1
2018-07-01T02:19:28.867Z,91.8
2018-07-01T02:20:29.593Z,91.7
2018-07-01T02:21:30.723Z,92.0
2018-07-01T02:22:31.438Z,92.2
2018-07-01T02:23:32.166Z,92.0
2018-07-01T02:24:32.876Z,92.0
2018-07-01T02:25:33.612Z,91.5
2018-07-01T02:26:34.337Z,91.6
2018-07-01T02:27:35.058Z,92.2
2018-07-01T02:28:36.026Z,92.2
2018-07-01T02:29:36.763Z,91.9
2018-07-01T02:30:37.484Z,92.2
2018-07-01T02:31:38.191Z,91.9
2018-07-01T02:32:38.909Z,92.1
2018-07-01T02:33:39.719Z,92.6
2018-07-01T02:34:40.403Z,92.3
2018-07-01T02:35:41.398Z,92.3
2018-07-01T02:36:42.110Z,92.6
2018-07-01T02:37:42.838Z,92.5
2018-07-01T02:38:43.962Z,92.2
2018-07-01T02:39:44.682Z,92.8
2018-07-01T02:40:45.657Z,92.7
2018-07-01T02:41:46.377Z,92.2
2018-07-01T02:42:47.089Z,92.6
2018-07-01T02:43:47.854Z,92.7
2018-07-01T02:44:48.833Z,92.5
2018-07-01T02:45:49.561Z,92.6
2018-07-01T02:46:50.278Z,93.3
2018-07-01T02:47:50.996Z,93.3
2018-07-01T02:48:51.814Z,92.7
2018-07-01T02:49:52.531Z,93.2
2018-07-01T02:50:53.608Z,92.6
2018-07-01T02:51:54.328Z,92.9
2018-07-01T02:52:55.099Z,92.9
2018-07-01T02:53:55.977Z,92.9
2018-07-01T02:54:56.730Z,93.6
2018-07-01T02:55:57.620Z,93.1
2018-07-01T02:56:58.356Z,93.4
2018-07-01T02:57:59.202Z,93.0
2018-07-01T02:58:59.959Z,93.3
2018-07-01T03:00:00.710Z,92.9
2018-07-01T03:01:01.506Z,92.8
2018-07-01T03:02:02.297Z,93.1
2018-07-01T03:03:03.160Z,93.5
2018-07-01T03:04:03.938Z,93.5
2018-07-01T03:05:04.800Z,93.4
2018-07-01T03:06:05.613Z,93.8
2018-07-01T03:07:06.380Z,93.6
2018-07-01T03:08:07.214Z,94.1
2018-07-01T03:09:07.944Z,93.7
2018-07-01T03:10:08.677Z,93.9
2018-07-01T03:11:09.397Z,93.7
2018-07-01T03:12:10.124Z,93.9
2018-07-01T03:13:10.862Z,93.7
2018-07-01T03:14:11.582Z,93.8
2018-07-01T03:15:12.308Z,93.9
2018-07-01T03:16:13.140Z,93.7
2018-07-01T03:17:13.865Z,93.5
2018-07-01T03:18:14.584Z,94.2
2018-07-01T03:19:15.327Z,93.9
2018-07-01T03:20:16.051Z,94.2
2018-07-01T03:21:16.772Z,93.9
2018-07-01T03:22:17.605Z,93.9
2018-07-01T03:23:18.340Z,94.3
2018-07-01T03:24:19.059Z,94.4
2018-07-01T03:25:19.779Z,94.5
2018-07-01T03:26:20.519Z,94.4
2018-07-01T03:27:21.271Z,94.3
2018-07-01T03:28:21.948Z,94.4
2018-07-01T03:29:22.666Z,94.2
2018-07-01T03:30:23.393Z,94.1
2018-07-01T03:31:24.122Z,94.2
2018-07-01T03:32:24.878Z,94.3
2018-07-01T03:33:25.608Z,94.4
2018-07-01T03:34:26.345Z,94.0
2018-07-01T03:35:27.065Z,93.7
2018-07-01T03:36:27.801Z,94.6
2018-07-01T03:37:28.576Z,94.3
2018-07-01T03:38:29.311Z,94.4
2018-07-01T03:39:30.040Z,94.4
2018-07-01T03:40:30.775Z,94.9
2018-07-01T03:41:31.505Z,94.7
2018-07-01T03:42:32.219Z,94.3
2018-07-01T03:43:32.955Z,94.2
2018-07-01T03:44:33.673Z,94.9
2018-07-01T03:45:34.385Z,94.4
2018-07-01T03:46:35.117Z,95.0
2018-07-01T03:47:35.831Z,94.6
2018-07-01T03:48:36.564Z,95.2
2018-07-01T03:49:37.282Z,94.7
2018-07-01T03:50:38.012Z,95.2
2018-07-01T03:51:38.732Z,95.0
2018-07-01T03:52:39.455Z,94.6
2018-07-01T03:53:40.276Z,94.5
2018-07-01T03:54:41.001Z,94.4
2018-07-01T03:55:41.721Z,94.5
2018-07-01T03:56:42.433Z,94.2
2018-07-01T03:57:43.170Z,95.1
2018-07-01T03:58:44.234Z,94.7
2018-07-01T03:59:44.946Z,94.4
2018-07-01T04:00:45.674Z,94.9
2018-07-01T04:01:46.472Z,95.6
2018-07-01T04:02:47.134Z,95.4
2018-07-01T04:03:47.965Z,95.1
2018-07-01T04:04:48.683Z,95.3
2018-07-01T04:05:49.411Z,95.3
2018-07-01T04:06:50.152Z,95.4
2018-07-01T04:07:50.877Z,95.6
2018-07-01T04:08:52.010Z,95.0
2018-07-01T04:09:52.749Z,95.0
2018-07-01T04:10:53.512Z,95.0
2018-07-01T04:11:54.292Z,95.5
2018-07-01T04:12:55.177Z,95.6
2018-07-01T04:13:55.966Z,95.0
2018-07-01T04:14:56.784Z,95.3
2018-07-01T04:15:57.583Z,95.3
2018-07-01T04:16:58.338Z,95.6
2018-07-01T04:17:59.099Z,95.3
2018-07-01T04:19:00.224Z,95.0
2018-07-01T04:20:00.973Z,95.5
2018-07-01T04:21:01.718Z,95.0
2018-07-01T04:22:02.437Z,94.3
2018-07-01T04:23:03.414Z,95.5
2018-07-01T04:24:04.152Z,95.2
2018-07-01T04:25:04.875Z,94.7
2018-07-01T04:26:05.596Z,95.2
2018-07-01T04:27:06.322Z,95.5
2018-07-01T04:28:07.049Z,95.6
2018-07-01T04:29:07.770Z,95.5
2018-07-01T04:30:08.495Z,94.8
2018-07-01T04:31:09.268Z,95.4
2018-07-01T04:32:09.958Z,95.5
2018-07-01T04:33:10.678Z,94.8
2018-07-01T04:34:11.406Z,95.4
2018-07-01T04:35:12.138Z,94.7
2018-07-01T04:36:13.011Z,95.0
2018-07-01T04:37:13.746Z,94.9
2018-07-01T04:38:14.466Z,94.6
2018-07-01T04:39:15.193Z,95.1
2018-07-01T04:40:15.921Z,94.5
2018-07-01T04:41:16.651Z,95.0
2018-07-01T04:42:17.378Z,94.4
2018-07-01T04:43:18.106Z,94.4
2018-07-01T04:44:18.830Z,94.2
2018-07-01T04:45:19.557Z,93.8
2018-07-01T04:46:20.530Z,94.1
2018-07-01T04:47:21.260Z,94.1
2018-07-01T04:48:22.644Z,92.8
2018-07-01T04:49:23.360Z,93.0
2018-07-01T04:50:24.341Z,93.1
2018-07-01T04:51:25.061Z,92.6
2018-07-01T04:52:25.797Z,92.4
2018-07-01T04:53:26.626Z,92.9
2018-07-01T04:54:27.352Z,92.4
2018-07-01T04:55:28.411Z,91.8
2018-07-01T04:56:29.055Z,91.3
2018-07-01T04:57:30.116Z,91.2
2018-07-01T04:58:30.820Z,91.2
2018-07-01T04:59:31.550Z,91.1
2018-07-01T05:00:32.268Z,90.5
2018-07-01T05:01:33.009Z,89.1
2018-07-01T05:02:33.795Z,89.4
2018-07-01T05:03:34.563Z,88.6
2018-07-01T05:04:35.291Z,89.2
2018-07-01T05:05:36.016Z,88.6
2018-07-01T05:06:36.757Z,88.7
2018-07-01T05:07:37.518Z,89.0
2018-07-01T05:08:38.230Z,88.3
2018-07-01T05:09:38.947Z,87.9
2018-07-01T05:10:39.679Z,88.3
2018-07-01T05:11:40.469Z,87.9
2018-07-01T05:12:41.184Z,87.9
2018-07-01T05:13:41.910Z,87.4
2018-07-01T05:14:42.641Z,87.3
2018-07-01T05:15:43.366Z,86.9
2018-07-01T05:16:44.100Z,86.7
2018-07-01T05:17:44.827Z,87.1
2018-07-01T05:18:45.810Z,85.8
2018-07-01T05:19:46.538Z,86.0
2018-07-01T05:20:47.259Z,85.9
2018-07-01T05:21:48.029Z,84.6
2018-07-01T05:22:48.750Z,85.8
2018-07-01T05:23:49.476Z,85.5
2018-07-01T05:24:50.205Z,85.6
2018-07-01T05:25:50.931Z,84.9
2018-07-01T05:26:51.665Z,83.8
2018-07-01T05:27:52.395Z,82.9
2018-07-01T05:28:53.122Z,82.5
2018-07-01T05:29:53.852Z,82.5
2018-07-01T05:30:54.585Z,81.9
2018-07-01T05:31:55.308Z,80.6
2018-07-01T05:32:56.296Z,79.2
2018-07-01T05:33:57.022Z,79.8
2018-07-01T05:34:57.757Z,78.6
2018-07-01T05:35:58.473Z,77.3
2018-07-01T05:36:59.193Z,75.7
2018-07-01T05:37:59.908Z,74.1
2018-07-01T05:39:00.657Z,73.8
2018-07-01T05:40:01.743Z,72.2
2018-07-01T05:41:02.466Z,71.3
2018-07-01T05:42:03.254Z,71.3
2018-07-01T05:43:03.922Z,71.2
2018-07-01T05:44:04.670Z,71.2
2018-07-01T05:45:05.799Z,70.8
2018-07-01T05:46:06.530Z,69.8
2018-07-01T05:47:07.255Z,68.8
2018-07-01T05:48:07.977Z,69.1
2018-07-01T05:49:08.701Z,68.4
2018-07-01T05:50:09.525Z,68.2
2018-07-01T05:51:10.244Z,68.2
2018-07-01T05:52:10.985Z,67.4
2018-07-01T05:53:11.713Z,68.0
2018-07-01T05:54:12.443Z,68.0
2018-07-01T05:55:13.175Z,68.5
2018-07-01T05:56:13.898Z,67.4
2018-07-01T05:57:14.688Z,66.6
2018-07-01T05:58:15.375Z,66.4
2018-07-01T05:59:16.356Z,65.5
2018-07-01T06:00:17.087Z,64.8
2018-07-01T06:01:17.825Z,64.1
2018-07-01T06:02:18.803Z,64.3
2018-07-01T06:03:19.534Z,63.9
2018-07-01T06:04:20.337Z,63.5
2018-07-01T06:05:21.048Z,62.7
2018-07-01T06:06:21.777Z,63.0
2018-07-01T06:07:22.506Z,62.5
2018-07-01T06:08:23.224Z,62.7
2018-07-01T06:09:23.956Z,62.6
2018-07-01T06:10:24.698Z,62.9
2018-07-01T06:11:25.683Z,62.2
2018-07-01T06:12:26.418Z,62.1
2018-07-01T06:13:27.154Z,63.0
2018-07-01T06:14:27.881Z,62.7
2018-07-01T06:15:28.615Z,64.1
2018-07-01T06:16:29.404Z,64.7
2018-07-01T06:17:30.072Z,65.0
2018-07-01T06:18:30.804Z,65.7
2018-07-01T06:19:31.532Z,65.5
2018-07-01T06:20:32.268Z,66.1
2018-07-01T06:21:32.980Z,65.9
2018-07-01T06:22:33.714Z,65.8
2018-07-01T06:23:34.687Z,66.4
2018-07-01T06:24:35.452Z,67.4
2018-07-01T06:25:36.150Z,68.6
2018-07-01T06:26:36.882Z,68.3
2018-07-01T06:27:37.624Z,66.6
2018-07-01T06:28:38.349Z,66.0
2018-07-01T06:29:39.083Z,65.5
2018-07-01T06:30:39.807Z,65.2
2018-07-01T06:31:40.532Z,65.3
2018-07-01T06:32:41.551Z,65.6
2018-07-01T06:33:42.640Z,64.7
2018-07-01T06:34:43.448Z,64.7
2018-07-01T06:35:44.612Z,63.6
2018-07-01T06:36:45.352Z,63.0
2018-07-01T06:37:46.330Z,63.2
2018-07-01T06:38:47.474Z,62.7
2018-07-01T06:39:48.367Z,62.2
2018-07-01T06:40:49.481Z,62.1
2018-07-01T06:41:50.654Z,63.3
2018-07-01T06:42:51.370Z,61.8
2018-07-01T06:43:52.279Z,59.3
2018-07-01T06:44:53.250Z,56.9
2018-07-01T06:45:53.998Z,56.9
2018-07-01T06:46:54.851Z,57.2
2018-07-01T06:47:55.691Z,58.0
2018-07-01T06:48:56.492Z,56.8
2018-07-01T06:49:57.324Z,57.0
2018-07-01T06:50:58.303Z,56.3
2018-07-01T06:51:59.059Z,54.0
2018-07-01T06:52:59.862Z,52.5
2018-07-01T06:54:01.052Z,51.2
2018-07-01T06:55:01.947Z,51.7
2018-07-01T06:56:02.789Z,51.7
2018-07-01T06:57:04.061Z,50.7
2018-07-01T06:58:04.811Z,50.6
2018-07-01T06:59:05.625Z,50.3
2018-07-01T07:00:06.467Z,50.8
2018-07-01T07:01:07.642Z,50.6
2018-07-01T07:02:08.379Z,51.5
2018-07-01T07:03:09.236Z,50.0
2018-07-01T07:04:09.972Z,49.1
2018-07-01T07:05:10.886Z,48.6
2018-07-01T07:06:11.775Z,49.0
2018-07-01T07:07:12.723Z,49.1
2018-07-01T07:08:13.475Z,49.3
2018-07-01T07:09:14.583Z,48.1
2018-07-01T07:10:15.446Z,48.2
2018-07-01T07:11:16.249Z,47.8
2018-07-01T07:12:16.981Z,47.7
2018-07-01T07:13:17.709Z,48.1
2018-07-01T07:14:18.444Z,47.3
2018-07-01T07:15:19.179Z,46.3
2018-07-01T07:16:19.976Z,46.3
2018-07-01T07:17:20.642Z,46.1
2018-07-01T07:18:21.373Z,45.9
2018-07-01T07:19:22.114Z,46.4
2018-07-01T07:20:22.837Z,46.8
2018-07-01T07:21:23.566Z,47.7
2018-07-01T07:22:24.305Z,49.2
2018-07-01T07:23:25.288Z,49.0
2018-07-01T07:24:26.313Z,48.6
2018-07-01T07:25:27.005Z,47.7
2018-07-01T07:26:27.734Z,48.0
2018-07-01T07:27:28.459Z,47.6
2018-07-01T07:28:29.192Z,47.6
2018-07-01T07:29:29.918Z,47.8
2018-07-01T07:30:30.677Z,46.8
2018-07-01T07:31:31.404Z,46.1
2018-07-01T07:32:32.142Z,46.4
2018-07-01T07:33:32.862Z,46.7
2018-07-01T07:34:33.593Z,46.5
2018-07-01T07:35:34.335Z,46.5
2018-07-01T07:36:35.070Z,45.1
2018-07-01T07:37:35.807Z,44.7
2018-07-01T07:38:36.547Z,43.7
2018-07-01T07:39:37.529Z,42.1
2018-07-01T07:40:38.273Z,41.3
2018-07-01T07:41:38.997Z,39.9
2018-07-01T07:42:39.728Z,39.1
2018-07-01T07:43:40.468Z,39.1
2018-07-01T07:44:41.207Z,39.1
2018-07-01T07:45:41.938Z,37.9
2018-07-01T07:46:43.073Z,37.8
2018-07-01T07:47:43.804Z,36.7
2018-07-01T07:48:44.540Z,36.7
2018-07-01T07:49:45.273Z,36.7
2018-07-01T07:50:46.007Z,35.5
2018-07-01T07:51:47.093Z,34.6
2018-07-01T07:52:47.842Z,33.9
2018-07-01T07:53:48.582Z,34.3
2018-07-01T07:54:49.307Z,34.3
2018-07-01T07:55:50.043Z,35.1
2018-07-01T07:56:51.123Z,35.0
2018-07-01T07:57:51.865Z,35.3
2018-07-01T07:58:52.614Z,35.0
2018-07-01T07:59:53.342Z,34.9
2018-07-01T08:00:54.066Z,35.5
2018-07-01T08:01:54.994Z,34.3
2018-07-01T08:02:55.704Z,34.6
2018-07-01T08:03:56.420Z,34.2
2018-07-01T08:04:57.170Z,34.3
2018-07-01T08:05:57.916Z,34.9
2018-07-01T08:06:58.647Z,34.9
2018-07-01T08:07:59.385Z,34.2
2018-07-01T08:09:00.127Z,33.6
2018-07-01T08:10:00.867Z,33.1
2018-07-01T08:11:01.630Z,32.6
2018-07-01T08:12:02.357Z,32.9
2018-07-01T08:13:03.157Z,32.4
2018-07-01T08:14:03.836Z,34.1
2018-07-01T08:15:04.821Z,32.7
2018-07-01T08:16:05.555Z,33.4
2018-07-01T08:17:06.287Z,32.7
2018-07-01T08:18:07.032Z,32.4
2018-07-01T08:19:07.770Z,32.1
2018-07-01T08:20:08.608Z,31.4
2018-07-01T08:21:09.897Z,31.7
2018-07-01T08:22:10.644Z,30.9
2018-07-01T08:23:11.398Z,30.9
2018-07-01T08:24:12.148Z,31.4
2018-07-01T08:25:13.443Z,31.5
2018-07-01T08:26:14.942Z,31.1
2018-07-01T08:27:16.080Z,31.0
2018-07-01T08:28:16.807Z,31.1
2018-07-01T08:29:17.546Z,31.8
2018-07-01T08:30:18.756Z,31.4
2018-07-01T08:31:19.587Z,31.6
2018-07-01T08:32:20.322Z,31.8
2018-07-01T08:33:21.079Z,31.4
2018-07-01T08:34:21.801Z,31.7
2018-07-01T08:35:22.952Z,31.3
2018-07-01T08:36:23.778Z,31.7
2018-07-01T08:37:24.608Z,32.0
2018-07-01T08:38:25.340Z,30.2
2018-07-01T08:39:26.110Z,31.0
2018-07-01T08:40:26.848Z,30.1
2018-07-01T08:41:27.591Z,29.5
2018-07-01T08:42:28.316Z,29.6
2018-07-01T08:43:29.060Z,29.0
2018-07-01T08:44:29.845Z,29.6
2018-07-01T08:45:31.033Z,28.9
2018-07-01T08:46:31.856Z,29.3
2018-07-01T08:47:32.600Z,29.2
2018-07-01T08:48:33.343Z,28.2
2018-07-01T08:49:34.099Z,29.0
2018-07-01T08:50:34.849Z,28.8
2018-07-01T08:51:35.600Z,28.8
2018-07-01T08:52:36.379Z,28.1
2018-07-01T08:53:37.239Z,27.6
2018-07-01T08:54:37.960Z,28.2
2018-07-01T08:55:39.853Z,27.9
2018-07-01T08:56:40.780Z,28.2
2018-07-01T08:57:41.507Z,29.4
2018-07-01T08:58:42.337Z,29.7
2018-07-01T08:59:43.158Z,29.5
2018-07-01T09:00:43.897Z,30.3
2018-07-01T09:01:44.638Z,30.3
2018-07-01T09:02:45.362Z,31.0
2018-07-01T09:03:46.117Z,30.5
2018-07-01T09:04:46.856Z,31.3
2018-07-01T09:05:47.661Z,31.3
2018-07-01T09:06:48.394Z,31.5
2018-07-01T09:07:49.124Z,31.7
2018-07-01T09:08:49.884Z,32.7
2018-07-01T09:09:50.592Z,33.3
2018-07-01T09:10:51.551Z,33.7
2018-07-01T09:11:52.374Z,34.6
2018-07-01T09:12:53.581Z,34.4
2018-07-01T09:13:54.401Z,33.9
2018-07-01T09:14:55.138Z,32.5
2018-07-01T09:15:55.874Z,31.4
2018-07-01T09:16:56.652Z,31.3
2018-07-01T09:17:57.801Z,31.2
2018-07-01T09:18:58.612Z,32.5
2018-07-01T09:19:59.710Z,31.2
2018-07-01T09:21:00.440Z,31.8
2018-07-01T09:22:01.171Z,31.4
2018-07-01T09:23:02.370Z,31.7
2018-07-01T09:24:03.195Z,32.2
2018-07-01T09:25:03.930Z,31.3
2018-07-01T09:26:04.917Z,31.5
2018-07-01T09:27:05.682Z,31.6
2018-07-01T09:28:06.848Z,30.5
2018-07-01T09:29:07.682Z,30.3
2018-07-01T09:30:08.401Z,31.5
2018-07-01T09:31:09.144Z,30.5
2018-07-01T09:32:10.561Z,30.3
2018-07-01T09:33:11.525Z,30.7
2018-07-01T09:34:12.264Z,31.1
2018-07-01T09:35:12.989Z,30.3
2018-07-01T09:36:14.164Z,30.5
2018-07-01T09:37:14.965Z,29.6
2018-07-01T09:38:16.062Z,29.9
2018-07-01T09:39:16.792Z,30.0
2018-07-01T09:40:17.675Z,30.5
2018-07-01T09:41:18.856Z,30.7
2018-07-01T09:42:19.582Z,30.3
2018-07-01T09:43:20.457Z,30.9
2018-07-01T09:44:21.537Z,29.8
2018-07-01T09:45:22.374Z,30.4
2018-07-01T09:46:23.535Z,30.3
2018-07-01T09:47:24.365Z,29.7
2018-07-01T09:48:25.247Z,28.2
2018-07-01T09:49:26.398Z,29.2
2018-07-01T09:50:27.295Z,29.7
2018-07-01T09:51:28.466Z,30.4
2018-07-01T09:52:29.212Z,30.4
2018-07-01T09:53:30.104Z,30.1
2018-07-01T09:54:30.829Z,29.9
2018-07-01T09:55:31.924Z,30.4
2018-07-01T09:56:32.658Z,29.9
2018-07-01T09:57:33.396Z,29.5
2018-07-01T09:58:34.559Z,29.7
2018-07-01T09:59:35.383Z,28.4
2018-07-01T10:00:36.767Z,29.9
2018-07-01T10:01:37.608Z,29.9
2018-07-01T10:02:38.344Z,30.6
2018-07-01T10:03:39.099Z,30.8
2018-07-01T10:04:39.816Z,31.0
2018-07-01T10:05:41.125Z,30.5
2018-07-01T10:06:42.361Z,30.7
2018-07-01T10:07:43.326Z,30.9
2018-07-01T10:08:44.072Z,30.3
2018-07-01T10:09:45.071Z,30.5
2018-07-01T10:10:45.797Z,30.4
2018-07-01T10:11:46.984Z,29.9
2018-07-01T10:12:47.846Z,30.4
2018-07-01T10:13:48.581Z,30.3
2018-07-01T10:14:49.320Z,30.8
2018-07-01T10:15:50.091Z,31.4
2018-07-01T10:16:51.302Z,30.0
2018-07-01T10:17:52.620Z,30.5
2018-07-01T10:18:53.933Z,29.6
2018-07-01T10:19:54.733Z,30.0
2018-07-01T10:20:55.627Z,31.3
2018-07-01T10:21:56.362Z,32.0
2018-07-01T10:22:57.096Z,31.7
2018-07-01T10:23:58.205Z,32.2
2018-07-01T10:24:58.945Z,31.7
2018-07-01T10:25:59.675Z,31.7
2018-07-01T10:27:00.412Z,31.6
2018-07-01T10:28:01.160Z,31.6
2018-07-01T10:29:02.630Z,31.6
2018-07-01T10:30:03.441Z,31.5
2018-07-01T10:31:04.282Z,31.5
2018-07-01T10:32:05.035Z,31.4
2018-07-01T10:33:05.759Z,31.9
2018-07-01T10:34:07.136Z,31.7
2018-07-01T10:35:07.866Z,31.7
2018-07-01T10:36:09.011Z,31.9
2018-07-01T10:37:10.251Z,31.7
2018-07-01T10:38:11.471Z,31.4
2018-07-01T10:39:12.352Z,31.0
2018-07-01T10:40:13.249Z,31.5
2018-07-01T10:41:13.949Z,30.8
2018-07-01T10:42:14.693Z,31.0
2018-07-01T10:43:15.432Z,31.5
2018-07-01T10:44:16.323Z,31.7
2018-07-01T10:45:17.054Z,31.3
2018-07-01T10:46:17.809Z,31.9
2018-07-01T10:47:18.545Z,31.2
2018-07-01T10:48:19.282Z,31.4
2018-07-01T10:49:20.014Z,32.0
2018-07-01T10:50:20.766Z,31.7
2018-07-01T10:51:21.551Z,31.4
2018-07-01T10:52:22.223Z,31.4
2018-07-01T10:53:22.952Z,32.1
2018-07-01T10:54:23.706Z,31.8
2018-07-01T10:55:24.441Z,31.7
2018-07-01T10:56:25.222Z,32.4
2018-07-01T10:57:25.952Z,32.6
2018-07-01T10:58:26.696Z,32.8
2018-07-01T10:59:27.436Z,32.4
2018-07-01T11:00:28.171Z,31.6
2018-07-01T11:01:28.909Z,32.2
2018-07-01T11:02:29.635Z,32.1
2018-07-01T11:03:30.374Z,33.7
2018-07-01T11:04:31.106Z,34.3
2018-07-01T11:05:31.838Z,33.7
2018-07-01T11:06:32.578Z,34.1
2018-07-01T11:07:33.563Z,32.7
2018-07-01T11:08:34.317Z,32.1
2018-07-01T11:09:35.077Z,32.1
2018-07-01T11:10:35.809Z,31.3
2018-07-01T11:11:36.551Z,31.6
2018-07-01T11:12:37.274Z,30.4
2018-07-01T11:13:38.006Z,31.5
2018-07-01T11:14:38.746Z,31.4
2018-07-01T11:15:39.488Z,31.8
2018-07-01T11:16:40.316Z,30.4
2018-07-01T11:17:41.058Z,30.0
2018-07-01T11:18:42.055Z,30.4
2018-07-01T11:19:42.784Z,30.4
2018-07-01T11:20:43.530Z,30.2
2018-07-01T11:21:44.265Z,31.0
2018-07-01T11:22:45.267Z,31.9
2018-07-01T11:23:46.019Z,30.8
2018-07-01T11:24:46.744Z,30.2
2018-07-01T11:25:47.482Z,30.1
2018-07-01T11:26:48.407Z,29.9
2018-07-01T11:27:48.946Z,30.5
2018-07-01T11:28:50.084Z,30.4
2018-07-01T11:29:50.817Z,31.6
2018-07-01T11:30:51.817Z,31.5
2018-07-01T11:31:52.567Z,31.1
2018-07-01T11:32:53.368Z,30.1
2018-07-01T11:33:54.042Z,31.2
2018-07-01T11:34:54.778Z,31.4
2018-07-01T11:35:55.514Z,31.6
2018-07-01T11:36:56.406Z,32.1
2018-07-01T11:37:57.158Z,32.1
2018-07-01T11:38:57.896Z,32.5
2018-07-01T11:39:58.653Z,31.4
2018-07-01T11:40:59.384Z,31.3
2018-07-01T11:42:00.177Z,31.6
2018-07-01T11:43:00.914Z,32.4
2018-07-01T11:44:01.933Z,31.7
2018-07-01T11:45:02.669Z,31.7
2018-07-01T11:46:03.408Z,30.8
2018-07-01T11:47:04.153Z,30.9
2018-07-01T11:48:04.886Z,30.2
2018-07-01T11:49:05.687Z,30.6
2018-07-01T11:50:06.419Z,30.6
2018-07-01T11:51:07.403Z,30.2
2018-07-01T11:52:08.151Z,31.0
2018-07-01T11:53:08.885Z,30.9
2018-07-01T11:54:10.022Z,30.4
2018-07-01T11:55:10.759Z,30.5
2018-07-01T11:56:11.507Z,30.5
2018-07-01T11:57:12.244Z,30.5
2018-07-01T11:58:13.016Z,29.8
2018-07-01T11:59:13.703Z,30.7
2018-07-01T12:00:14.692Z,30.1
2018-07-01T12:01:15.426Z,30.8
2018-07-01T12:02:16.168Z,30.6
2018-07-01T12:03:16.904Z,30.1
2018-07-01T12:04:17.643Z,30.0
2018-07-01T12:05:18.387Z,30.3
2018-07-01T12:06:19.138Z,30.0
2018-07-01T12:07:19.863Z,29.9
2018-07-01T12:08:20.622Z,29.6
2018-07-01T12:09:21.364Z,29.7
2018-07-01T12:10:22.105Z,30.0
2018-07-01T12:11:22.851Z,30.3
2018-07-01T12:12:23.652Z,30.0
2018-07-01T12:13:24.402Z,29.1
2018-07-01T12:14:25.156Z,30.1
2018-07-01T12:15:25.881Z,29.3
2018-07-01T12:16:26.617Z,28.5
2018-07-01T12:17:27.361Z,29.3
2018-07-01T12:18:28.100Z,28.5
2018-07-01T12:19:28.835Z,28.3
2018-07-01T12:20:29.667Z,28.0
2018-07-01T12:21:30.398Z,28.4
2018-07-01T12:22:31.166Z,28.6
2018-07-01T12:23:31.943Z,28.5
2018-07-01T12:24:32.634Z,28.2
2018-07-01T12:25:33.373Z,28.6
2018-07-01T12:26:34.114Z,29.6
2018-07-01T12:27:34.849Z,30.2
2018-07-01T12:28:35.640Z,29.1
2018-07-01T12:29:36.365Z,29.0
2018-07-01T12:30:37.112Z,28.8
2018-07-01T12:31:37.850Z,28.9
2018-07-01T12:32:38.603Z,29.9
2018-07-01T12:33:39.335Z,29.1
2018-07-01T12:34:40.117Z,29.7
2018-07-01T12:35:40.812Z,29.9
2018-07-01T12:36:41.552Z,29.6
2018-07-01T12:37:42.286Z,28.2
2018-07-01T12:38:43.024Z,28.6
2018-07-01T12:39:43.756Z,28.8
2018-07-01T12:40:44.487Z,28.2
2018-07-01T12:41:45.233Z,27.9
2018-07-01T12:42:46.221Z,27.8
2018-07-01T12:43:46.961Z,27.4
2018-07-01T12:44:47.696Z,27.8
2018-07-01T12:45:48.446Z,27.7
2018-07-01T12:46:49.295Z,27.3
2018-07-01T12:47:50.185Z,27.3
2018-07-01T12:48:50.756Z,28.0
2018-07-01T12:49:51.513Z,26.4
2018-07-01T12:50:52.244Z,26.4
2018-07-01T12:51:53.226Z,27.1
2018-07-01T12:52:53.971Z,27.1
2018-07-01T12:53:54.713Z,26.4
2018-07-01T12:54:55.466Z,26.8
2018-07-01T12:55:56.206Z,26.4
2018-07-01T12:56:56.949Z,27.0
2018-07-01T12:57:57.944Z,27.4
2018-07-01T12:58:58.721Z,27.8
2018-07-01T12:59:59.476Z,27.6
2018-07-01T13:01:00.202Z,27.9
2018-07-01T13:02:00.939Z,29.1
2018-07-01T13:03:01.692Z,27.9
2018-07-01T13:04:02.466Z,26.5
2018-07-01T13:05:03.197Z,27.1
2018-07-01T13:06:03.940Z,26.1
2018-07-01T13:07:04.671Z,27.0
2018-07-01T13:08:05.404Z,26.3
2018-07-01T13:09:06.297Z,27.0
2018-07-01T13:10:07.041Z,25.7
2018-07-01T13:11:07.763Z,26.3
2018-07-01T13:12:08.544Z,26.4
2018-07-01T13:13:09.244Z,26.3
2018-07-01T13:14:10.002Z,27.7
2018-07-01T13:15:10.734Z,27.8
2018-07-01T13:16:11.479Z,28.2
2018-07-01T13:17:12.203Z,27.9
2018-07-01T13:18:12.933Z,27.9
2018-07-01T13:19:14.079Z,26.8
2018-07-01T13:20:14.806Z,26.4
2018-07-01T13:21:15.786Z,25.9
2018-07-01T13:22:16.523Z,25.6
2018-07-01T13:23:17.261Z,25.6
2018-07-01T13:24:17.996Z,24.9
2018-07-01T13:25:18.784Z,25.5
2018-07-01T13:26:19.457Z,25.4
2018-07-01T13:27:20.194Z,25.3
2018-07-01T13:28:20.931Z,24.5
2018-07-01T13:29:21.676Z,25.0